Time;durP1;ratioP1;P1;durP2;ratioP2;P2;SDS_P1;SDS_P2;PMS_P1;PMS_P2;Temp;Humidity;BMP_temperature;BMP_pressure;BME280_temperature;BME280_humidity;BME280_pressure;Samples;Min_cycle;Max_cycle;Signal;HPM_P1;HPM_P2
2023/09/17 00:00:41;;;;;;;1.80;1.80;;;23.00;77.40;;;;;;5051701;28;45743;-73
2023/09/17 00:03:09;;;;;;;1.80;1.80;;;23.00;77.50;;;;;;5068962;28;43458;-75
2023/09/17 00:05:37;;;;;;;1.90;1.90;;;22.90;77.70;;;;;;5069358;28;43474;-73
2023/09/17 00:08:05;;;;;;;1.90;1.90;;;22.90;77.90;;;;;;5055976;28;44327;-76
2023/09/17 00:10:33;;;;;;;1.77;1.77;;;22.90;77.90;;;;;;5045547;28;45421;-77
2023/09/17 00:13:03;;;;;;;1.77;1.77;;;22.90;77.80;;;;;;5050532;28;44765;-76
2023/09/17 00:15:32;;;;;;;1.80;1.80;;;22.80;77.80;;;;;;5074552;28;43820;-77
2023/09/17 00:18:00;;;;;;;1.90;1.90;;;22.80;78.10;;;;;;5068839;28;43456;-77
2023/09/17 00:20:28;;;;;;;1.70;1.70;;;22.80;78.30;;;;;;5061512;28;45630;-77
2023/09/17 00:22:56;;;;;;;1.70;1.70;;;22.90;78.10;;;;;;5063689;28;44451;-77
2023/09/17 00:25:25;;;;;;;1.80;1.80;;;23.00;77.70;;;;;;5061391;28;43420;-77
2023/09/17 00:27:54;;;;;;;1.70;1.70;;;23.10;77.20;;;;;;5060746;28;43300;-77
2023/09/17 00:30:24;;;;;;;1.87;1.87;;;23.20;77.00;;;;;;5038620;28;45888;-75
2023/09/17 00:32:52;;;;;;;1.80;1.80;;;23.20;77.00;;;;;;5061139;28;44354;-77
2023/09/17 00:35:20;;;;;;;2.13;2.13;;;23.10;77.00;;;;;;5059269;28;43346;-77
2023/09/17 00:37:50;;;;;;;1.90;1.90;;;23.10;77.40;;;;;;5046119;28;43542;-77
2023/09/17 00:40:18;;;;;;;2.00;1.90;;;23.00;77.50;;;;;;5048850;28;43905;-76
2023/09/17 00:42:46;;;;;;;1.80;1.80;;;23.00;77.50;;;;;;5041913;28;45185;-78
2023/09/17 00:45:15;;;;;;;1.70;1.70;;;22.90;77.50;;;;;;5058991;28;43454;-76
2023/09/17 00:47:45;;;;;;;1.83;1.83;;;22.90;77.70;;;;;;5039198;28;43635;-78
2023/09/17 00:50:13;;;;;;;1.90;1.90;;;22.90;78.00;;;;;;5048597;28;45840;-77
2023/09/17 00:52:41;;;;;;;1.83;1.83;;;22.90;78.00;;;;;;5049783;28;44995;-77
2023/09/17 00:55:09;;;;;;;1.70;1.70;;;22.80;77.90;;;;;;5050110;28;43330;-76
2023/09/17 00:57:38;;;;;;;1.80;1.80;;;22.80;77.90;;;;;;5054869;28;43574;-77
2023/09/17 01:00:09;;;;;;;1.80;1.80;;;22.80;78.40;;;;;;5043910;28;45717;-76
2023/09/17 01:02:51;;;;;;;1.87;1.87;;;22.80;78.20;;;;;;5067665;28;43466;-77
2023/09/17 01:05:19;;;;;;;1.67;1.67;;;22.90;77.80;;;;;;5083824;28;43575;-67
2023/09/17 01:07:47;;;;;;;1.87;1.87;;;23.10;77.40;;;;;;5089236;28;43715;-68
2023/09/17 01:10:15;;;;;;;1.87;1.87;;;23.10;77.10;;;;;;5074176;28;44675;-68
2023/09/17 01:12:44;;;;;;;1.80;1.80;;;23.10;77.00;;;;;;5073091;28;45060;-69
2023/09/17 01:15:12;;;;;;;1.83;1.83;;;23.10;77.00;;;;;;5074436;28;43377;-68
2023/09/17 01:17:40;;;;;;;1.70;1.70;;;23.00;77.20;;;;;;5082119;28;43595;-67
2023/09/17 01:20:24;;;;;;;1.77;1.77;;;23.00;77.60;;;;;;5074510;28;45794;-68
2023/09/17 01:22:55;;;;;;;1.80;1.80;;;23.00;77.70;;;;;;5088815;28;43374;-67
2023/09/17 01:25:42;;;;;;;2.07;2.07;;;22.90;77.60;;;;;;5092397;28;43523;-67
2023/09/17 01:28:13;;;;;;;1.77;1.77;;;22.90;77.70;;;;;;5080585;28;43470;-68
2023/09/17 01:30:41;;;;;;;1.87;1.77;;;22.80;78.00;;;;;;5078413;28;45574;-68
2023/09/17 01:33:12;;;;;;;1.50;1.50;;;22.80;78.10;;;;;;5077590;28;44799;-68
2023/09/17 01:35:47;;;;;;;1.90;1.90;;;22.80;78.10;;;;;;5092594;28;43472;-68
2023/09/17 01:38:16;;;;;;;1.70;1.70;;;22.80;78.00;;;;;;5090815;28;43397;-69
2023/09/17 01:40:45;;;;;;;1.90;1.90;;;22.80;78.10;;;;;;5093192;28;46049;-68
2023/09/17 01:43:15;;;;;;;1.80;1.80;;;22.80;78.50;;;;;;5094942;28;43423;-68
2023/09/17 01:45:43;;;;;;;1.63;1.63;;;22.80;78.20;;;;;;5097782;28;43407;-69
2023/09/17 01:48:11;;;;;;;1.70;1.70;;;22.90;77.80;;;;;;5104133;27;43554;-68
2023/09/17 01:50:40;;;;;;;2.10;2.10;;;23.10;77.40;;;;;;5076089;28;45760;-67
2023/09/17 01:53:08;;;;;;;1.80;1.80;;;23.20;77.00;;;;;;5076116;28;44375;-69
2023/09/17 01:55:36;;;;;;;1.70;1.70;;;23.20;76.80;;;;;;5083434;27;43412;-68
2023/09/17 01:58:04;;;;;;;1.73;1.73;;;23.20;76.90;;;;;;5093072;28;43412;-69
2023/09/17 02:00:34;;;;;;;1.80;1.80;;;23.10;77.10;;;;;;5061924;28;45960;-68
2023/09/17 02:03:03;;;;;;;1.83;1.83;;;23.00;77.40;;;;;;5069242;28;44982;-68
2023/09/17 02:05:32;;;;;;;1.83;1.83;;;23.00;77.50;;;;;;5070276;28;43395;-68
2023/09/17 02:08:00;;;;;;;1.70;1.70;;;23.00;78.20;;;;;;5071618;28;43460;-68
2023/09/17 02:10:28;;;;;;;1.80;1.80;;;22.90;77.40;;;;;;5093509;28;45027;-69
2023/09/17 02:12:56;;;;;;;1.90;1.90;;;22.90;77.80;;;;;;5080015;27;44310;-69
2023/09/17 02:15:25;;;;;;;1.80;1.80;;;22.90;78.00;;;;;;5069736;28;43463;-68
2023/09/17 02:17:54;;;;;;;1.80;1.80;;;22.90;78.00;;;;;;5062790;28;43357;-69
2023/09/17 02:20:22;;;;;;;1.77;1.77;;;22.80;77.90;;;;;;5091260;28;45717;-68
2023/09/17 02:22:50;;;;;;;1.80;1.80;;;22.80;78.10;;;;;;5072582;28;44342;-68
2023/09/17 02:25:18;;;;;;;1.73;1.73;;;22.80;78.30;;;;;;5103239;27;43444;-68
2023/09/17 02:27:46;;;;;;;1.67;1.67;;;22.90;78.20;;;;;;5062599;28;43476;-70
2023/09/17 02:30:14;;;;;;;1.83;1.83;;;23.00;77.80;;;;;;5048744;28;45613;-70
2023/09/17 02:32:43;;;;;;;1.70;1.70;;;23.10;77.20;;;;;;5066170;28;45171;-71
2023/09/17 02:35:13;;;;;;;2.00;1.90;;;23.20;76.80;;;;;;5042913;28;43384;-70
2023/09/17 02:37:44;;;;;;;2.00;2.00;;;23.20;76.80;;;;;;5068941;28;43496;-70
2023/09/17 02:40:12;;;;;;;1.70;1.70;;;23.20;76.90;;;;;;5059909;28;43969;-70
2023/09/17 02:42:40;;;;;;;1.50;1.50;;;23.10;77.10;;;;;;5064151;28;43983;-77
2023/09/17 02:45:10;;;;;;;1.70;1.70;;;23.00;77.40;;;;;;5042057;28;43434;-69
2023/09/17 02:47:40;;;;;;;1.80;1.80;;;23.00;77.40;;;;;;5055022;28;43536;-69
2023/09/17 02:50:10;;;;;;;1.70;1.70;;;23.00;77.50;;;;;;5067858;28;43822;-70
2023/09/17 02:52:42;;;;;;;1.80;1.80;;;22.90;77.50;;;;;;5055173;28;44418;-69
2023/09/17 02:55:10;;;;;;;1.80;1.80;;;22.90;78.00;;;;;;5043855;28;43887;-70
2023/09/17 02:57:38;;;;;;;1.70;1.70;;;22.90;78.00;;;;;;5055462;28;43465;-70
2023/09/17 03:00:08;;;;;;;1.53;1.53;;;22.80;77.90;;;;;;5058870;28;46604;-70
2023/09/17 03:02:38;;;;;;;1.70;1.70;;;22.90;78.00;;;;;;5058008;28;43442;-70
2023/09/17 03:05:10;;;;;;;1.70;1.70;;;22.80;78.20;;;;;;5063018;28;43490;-70
2023/09/17 03:07:40;;;;;;;1.90;1.80;;;22.80;78.30;;;;;;5049936;28;43356;-71
2023/09/17 03:10:11;;;;;;;2.00;1.90;;;22.80;78.20;;;;;;5076121;28;46016;-70
2023/09/17 03:12:41;;;;;;;1.70;1.70;;;22.80;78.00;;;;;;5043153;28;43933;-70
2023/09/17 03:15:10;;;;;;;2.13;2.00;;;22.80;78.10;;;;;;5046372;28;43441;-70
2023/09/17 03:17:39;;;;;;;3.43;2.47;;;22.80;78.50;;;;;;5052696;28;43409;-77
2023/09/17 03:20:13;;;;;;;2.70;2.50;;;22.80;78.30;;;;;;5055088;28;45900;-69
2023/09/17 03:22:42;;;;;;;2.80;2.70;;;22.90;78.00;;;;;;5058357;28;45197;-70
2023/09/17 03:25:12;;;;;;;2.80;2.67;;;23.10;77.60;;;;;;5044196;28;43375;-70
2023/09/17 03:27:43;;;;;;;3.23;2.60;;;23.20;77.00;;;;;;5051706;28;43487;-70
2023/09/17 03:30:12;;;;;;;3.40;2.87;;;23.20;76.70;;;;;;5061105;28;46125;-69
2023/09/17 03:32:41;;;;;;;3.13;2.87;;;23.20;76.70;;;;;;5054506;28;45111;-70
2023/09/17 03:35:30;;;;;;;3.10;2.90;;;23.10;76.80;;;;;;5045215;28;43436;-70
2023/09/17 03:38:00;;;;;;;3.33;3.13;;;23.10;77.30;;;;;;5037099;28;44014;-70
2023/09/17 03:40:29;;;;;;;3.43;3.13;;;23.10;77.40;;;;;;5048713;28;44930;-71
2023/09/17 03:42:57;;;;;;;3.67;3.20;;;23.00;77.30;;;;;;5056501;28;45163;-70
2023/09/17 03:45:25;;;;;;;3.63;3.33;;;23.00;77.50;;;;;;5065114;28;43409;-70
2023/09/17 03:47:54;;;;;;;3.67;3.27;;;22.90;77.70;;;;;;5041143;28;44002;-70
2023/09/17 03:50:22;;;;;;;4.37;3.43;;;22.90;77.90;;;;;;5058887;28;45924;-71
2023/09/17 03:52:51;;;;;;;4.20;3.80;;;23.00;77.80;;;;;;5062802;28;43915;-71
2023/09/17 03:55:23;;;;;;;4.93;3.90;;;23.10;77.20;;;;;;5048854;28;44028;-70
2023/09/17 03:57:51;;;;;;;5.53;4.30;;;23.20;76.80;;;;;;5054769;28;43407;-71
2023/09/17 04:00:23;;;;;;;5.67;4.33;;;23.20;76.70;;;;;;5065900;28;45990;-71
2023/09/17 04:02:52;;;;;;;4.63;3.93;;;23.20;76.80;;;;;;5033622;28;44358;-71
2023/09/17 04:05:21;;;;;;;5.67;4.23;;;23.10;77.00;;;;;;5067831;28;43486;-71
2023/09/17 04:07:49;;;;;;;6.97;4.80;;;23.10;77.40;;;;;;5044808;28;43995;-71
2023/09/17 04:10:17;;;;;;;5.63;4.60;;;23.00;77.50;;;;;;5057090;28;46676;-73
2023/09/17 04:12:47;;;;;;;6.87;4.67;;;23.00;77.50;;;;;;5050816;28;44744;-70
2023/09/17 04:15:18;;;;;;;5.07;4.50;;;23.00;77.70;;;;;;5081609;28;43446;-70
2023/09/17 04:17:47;;;;;;;10.20;5.10;;;22.90;77.90;;;;;;5061154;28;43449;-70
2023/09/17 04:20:18;;;;;;;6.93;4.73;;;22.90;78.00;;;;;;5066449;28;45726;-70
2023/09/17 04:22:48;;;;;;;7.07;4.60;;;22.90;77.90;;;;;;5059978;28;43716;-70
2023/09/17 04:25:18;;;;;;;6.03;4.97;;;22.90;77.90;;;;;;5042552;28;43437;-70
2023/09/17 04:27:48;;;;;;;6.97;4.80;;;22.90;78.00;;;;;;5046304;28;44112;-70
2023/09/17 04:30:19;;;;;;;7.03;4.83;;;22.80;78.30;;;;;;5071268;28;45026;-70
2023/09/17 04:32:48;;;;;;;8.00;5.10;;;22.90;78.20;;;;;;5037357;28;44663;-70
2023/09/17 04:35:17;;;;;;;7.27;5.03;;;23.00;77.80;;;;;;5073477;28;43964;-70
2023/09/17 04:37:47;;;;;;;7.83;5.30;;;23.20;77.30;;;;;;5048417;28;43584;-70
2023/09/17 04:40:18;;;;;;;8.17;4.83;;;23.20;76.90;;;;;;5042850;28;45734;-72
2023/09/17 04:42:48;;;;;;;5.17;4.67;;;23.20;76.80;;;;;;5058811;28;44017;-70
2023/09/17 04:45:34;;;;;;;7.60;5.07;;;23.20;76.90;;;;;;5055845;28;43490;-70
2023/09/17 04:48:09;;;;;;;7.47;5.43;;;23.10;77.10;;;;;;5043014;28;43391;-71
2023/09/17 04:50:40;;;;;;;8.07;5.80;;;23.10;77.40;;;;;;5068265;28;45737;-71
2023/09/17 04:53:08;;;;;;;8.63;5.33;;;23.10;77.40;;;;;;5044071;28;44846;-69
2023/09/17 04:55:36;;;;;;;6.53;5.23;;;23.00;77.50;;;;;;5059557;28;43623;-76
2023/09/17 04:58:06;;;;;;;9.17;5.97;;;23.00;77.60;;;;;;5073647;28;43401;-71
2023/09/17 05:00:35;;;;;;;7.90;5.43;;;23.00;78.00;;;;;;5042554;28;46204;-69
2023/09/17 05:03:03;;;;;;;9.20;5.83;;;22.90;77.90;;;;;;5033915;28;44812;-69
2023/09/17 05:05:31;;;;;;;6.90;4.90;;;22.90;77.80;;;;;;5057360;28;43479;-70
2023/09/17 05:08:00;;;;;;;8.33;5.80;;;22.90;77.90;;;;;;5056626;28;43571;-71
2023/09/17 05:10:29;;;;;;;8.10;5.80;;;22.90;78.30;;;;;;5072984;28;44957;-70
2023/09/17 05:12:57;;;;;;;8.57;5.73;;;22.90;78.30;;;;;;5054014;28;44437;-70
2023/09/17 05:15:28;;;;;;;8.50;5.70;;;23.00;78.00;;;;;;5048674;28;43466;-70
2023/09/17 05:17:58;;;;;;;8.03;5.57;;;23.10;77.50;;;;;;5038786;28;43521;-69
2023/09/17 05:20:26;;;;;;;7.43;5.30;;;23.20;77.10;;;;;;5067976;28;46053;-69
2023/09/17 05:22:58;;;;;;;6.10;5.23;;;23.20;76.80;;;;;;5047753;28;44395;-69
2023/09/17 05:25:26;;;;;;;7.70;5.20;;;23.20;76.80;;;;;;5050220;28;43450;-69
2023/09/17 05:27:55;;;;;;;6.70;5.57;;;23.10;76.90;;;;;;5065506;28;43455;-70
2023/09/17 05:30:23;;;;;;;8.00;5.93;;;23.10;77.40;;;;;;5069284;28;43600;-70
2023/09/17 05:32:52;;;;;;;8.80;5.80;;;23.00;77.50;;;;;;5055758;28;44664;-73
2023/09/17 05:35:20;;;;;;;8.50;5.93;;;23.00;77.50;;;;;;5042084;28;43410;-69
2023/09/17 05:37:49;;;;;;;8.13;5.83;;;23.00;77.60;;;;;;5067976;28;43609;-69
2023/09/17 05:40:17;;;;;;;8.47;5.77;;;22.90;77.80;;;;;;5061986;28;45933;-69
2023/09/17 05:42:46;;;;;;;6.50;5.70;;;22.90;78.00;;;;;;5061409;28;44409;-69
2023/09/17 05:45:16;;;;;;;7.10;5.80;;;22.90;77.90;;;;;;5048457;28;43365;-69
2023/09/17 05:47:45;;;;;;;7.57;5.50;;;22.90;77.80;;;;;;5066467;28;43578;-71
2023/09/17 05:50:14;;;;;;;8.00;6.00;;;22.90;78.00;;;;;;5067471;28;45131;-71
2023/09/17 05:52:43;;;;;;;10.43;6.23;;;22.80;78.30;;;;;;5048730;28;44759;-72
2023/09/17 05:55:12;;;;;;;10.00;6.03;;;22.90;78.20;;;;;;5050007;28;43416;-72
2023/09/17 05:57:41;;;;;;;6.53;5.70;;;23.00;77.70;;;;;;5063423;28;43384;-72
2023/09/17 06:00:10;;;;;;;8.00;6.00;;;23.10;77.20;;;;;;5050737;28;43811;-71
2023/09/17 06:02:44;;;;;;;8.80;6.27;;;23.20;76.80;;;;;;5056006;28;43383;-72
2023/09/17 06:05:17;;;;;;;7.43;5.83;;;23.30;77.00;;;;;;5067491;28;43396;-72
2023/09/17 06:07:45;;;;;;;9.57;6.33;;;23.20;76.80;;;;;;5064791;28;44049;-72
2023/09/17 06:10:13;;;;;;;8.47;6.10;;;23.10;77.00;;;;;;5043828;28;43822;-71
2023/09/17 06:12:42;;;;;;;9.63;6.20;;;23.10;77.40;;;;;;5063206;28;44113;-71
2023/09/17 06:15:10;;;;;;;8.20;5.77;;;23.10;77.50;;;;;;5042823;28;43408;-72
2023/09/17 06:17:39;;;;;;;7.00;5.93;;;23.00;77.50;;;;;;5055252;28;43492;-72
2023/09/17 06:20:09;;;;;;;7.80;5.93;;;23.00;77.50;;;;;;5073844;28;45402;-72
2023/09/17 06:22:39;;;;;;;9.83;6.40;;;22.90;77.90;;;;;;5066244;28;43458;-72
2023/09/17 06:25:07;;;;;;;9.23;6.43;;;22.90;78.00;;;;;;5068821;28;43462;-71
2023/09/17 06:27:35;;;;;;;7.90;5.77;;;22.90;78.00;;;;;;5055052;28;43401;-72
2023/09/17 06:30:05;;;;;;;8.47;5.90;;;22.90;77.90;;;;;;5079065;28;43854;-72
2023/09/17 06:32:33;;;;;;;8.67;5.90;;;22.80;78.10;;;;;;5066025;28;45224;-72
2023/09/17 06:35:01;;;;;;;8.37;5.70;;;22.80;78.30;;;;;;5033266;28;43472;-72
2023/09/17 06:37:30;;;;;;;6.77;5.33;;;22.90;78.20;;;;;;5067931;28;44028;-72
2023/09/17 06:39:59;;;;;;;7.87;6.17;;;23.00;77.80;;;;;;5041197;28;44911;-72
2023/09/17 06:42:27;;;;;;;7.90;5.60;;;23.20;77.30;;;;;;5046775;28;44743;-72
2023/09/17 06:44:55;;;;;;;7.47;5.67;;;23.20;77.00;;;;;;5076615;28;43464;-71
2023/09/17 06:47:23;;;;;;;8.50;6.03;;;23.20;76.90;;;;;;5063506;28;43428;-71
2023/09/17 06:49:52;;;;;;;7.97;6.20;;;23.20;77.00;;;;;;5065527;28;44283;-72
2023/09/17 06:52:23;;;;;;;7.43;6.30;;;23.10;77.10;;;;;;5064504;28;43372;-72
2023/09/17 06:54:53;;;;;;;7.93;6.00;;;23.10;77.50;;;;;;5068059;28;43348;-71
2023/09/17 06:57:23;;;;;;;6.30;5.70;;;23.00;77.50;;;;;;5071615;28;43421;-66
2023/09/17 06:59:51;;;;;;;6.93;5.70;;;23.00;77.50;;;;;;5060783;28;45657;-66
2023/09/17 07:02:19;;;;;;;9.37;6.63;;;23.00;77.60;;;;;;5070665;28;43421;-69
2023/09/17 07:04:47;;;;;;;8.80;6.67;;;22.90;78.00;;;;;;5055264;28;43396;-65
2023/09/17 07:07:17;;;;;;;8.50;6.00;;;22.90;78.00;;;;;;5071902;28;43603;-66
2023/09/17 07:09:45;;;;;;;6.57;5.70;;;22.90;77.90;;;;;;5077540;28;43611;-66
2023/09/17 07:12:13;;;;;;;6.77;5.73;;;22.90;77.90;;;;;;5068552;28;44726;-65
2023/09/17 07:14:42;;;;;;;6.77;5.93;;;22.80;78.10;;;;;;5069493;28;43430;-66
2023/09/17 07:17:10;;;;;;;6.60;5.63;;;22.80;78.30;;;;;;5073674;28;43396;-65
2023/09/17 07:19:38;;;;;;;7.00;6.00;;;22.90;78.30;;;;;;5074244;28;43845;-65
2023/09/17 07:22:11;;;;;;;8.07;5.93;;;23.00;77.70;;;;;;5072665;28;43415;-64
2023/09/17 07:24:40;;;;;;;6.30;5.70;;;23.20;77.20;;;;;;5076518;28;43431;-65
2023/09/17 07:27:08;;;;;;;6.57;5.17;;;23.20;76.90;;;;;;5051226;28;43507;-66
2023/09/17 07:29:37;;;;;;;6.23;5.63;;;23.20;76.80;;;;;;5067462;28;43934;-68
2023/09/17 07:32:07;;;;;;;6.50;5.97;;;23.20;76.90;;;;;;5071228;28;44976;-66
2023/09/17 07:34:35;;;;;;;6.80;6.10;;;23.10;77.20;;;;;;5075804;28;43660;-65
2023/09/17 07:37:04;;;;;;;6.30;5.70;;;23.00;77.40;;;;;;5079985;28;43599;-65
2023/09/17 07:39:32;;;;;;;6.63;5.83;;;23.00;77.50;;;;;;5075650;28;43623;-66
2023/09/17 07:42:00;;;;;;;5.50;5.17;;;23.00;77.50;;;;;;5066961;28;43358;-65
2023/09/17 07:44:28;;;;;;;7.17;5.90;;;22.90;77.50;;;;;;5083977;28;43386;-65
2023/09/17 07:46:56;;;;;;;7.70;5.87;;;22.90;78.70;;;;;;5085437;28;43376;-65
2023/09/17 07:49:28;;;;;;;5.50;5.00;;;22.90;78.00;;;;;;5083892;28;43965;-66
2023/09/17 07:51:57;;;;;;;5.37;4.87;;;22.90;78.00;;;;;;5087117;28;43402;-65
2023/09/17 07:54:25;;;;;;;6.23;5.53;;;22.90;78.00;;;;;;5076849;28;43463;-66
2023/09/17 07:56:53;;;;;;;6.53;5.53;;;22.80;78.20;;;;;;5085898;28;43402;-67
2023/09/17 07:59:21;;;;;;;6.17;5.67;;;22.80;78.10;;;;;;5068702;28;45991;-65
2023/09/17 08:01:51;;;;;;;5.60;5.10;;;22.90;77.80;;;;;;5083864;28;43417;-69
2023/09/17 08:04:19;;;;;;;5.73;5.17;;;23.00;77.60;;;;;;5085979;28;43541;-66
2023/09/17 08:06:49;;;;;;;7.03;5.50;;;23.00;77.40;;;;;;5082097;28;43341;-65
2023/09/17 08:09:17;;;;;;;6.00;5.47;;;23.00;77.40;;;;;;5104418;28;43620;-69
2023/09/17 08:11:45;;;;;;;5.83;5.33;;;23.00;77.50;;;;;;5089461;28;43403;-68
2023/09/17 08:14:14;;;;;;;5.90;5.23;;;23.00;77.50;;;;;;5091535;28;43427;-68
2023/09/17 08:16:42;;;;;;;5.30;4.90;;;23.00;77.50;;;;;;5088708;28;43403;-68
2023/09/17 08:19:10;;;;;;;5.80;5.20;;;22.90;77.40;;;;;;5077633;28;45733;-68
2023/09/17 08:21:40;;;;;;;5.77;5.27;;;22.90;77.70;;;;;;5098997;28;43359;-68
2023/09/17 08:24:10;;;;;;;5.70;5.20;;;22.90;77.90;;;;;;5095129;28;43421;-68
2023/09/17 08:26:38;;;;;;;5.40;4.90;;;22.90;77.70;;;;;;5094019;27;43392;-67
2023/09/17 08:29:06;;;;;;;5.43;4.97;;;23.00;77.30;;;;;;5100906;28;43699;-68
2023/09/17 08:31:34;;;;;;;5.50;5.10;;;23.10;77.00;;;;;;5098568;28;43359;-68
2023/09/17 08:34:03;;;;;;;6.20;5.60;;;23.20;76.80;;;;;;5102024;28;43424;-68
2023/09/17 08:36:32;;;;;;;4.80;4.50;;;23.20;76.90;;;;;;5097753;27;43402;-68
2023/09/17 08:39:01;;;;;;;5.30;4.90;;;23.10;77.00;;;;;;5082798;28;43614;-68
2023/09/17 08:41:30;;;;;;;5.73;5.23;;;23.00;77.30;;;;;;5093563;28;43421;-68
2023/09/17 08:43:58;;;;;;;5.33;4.93;;;23.00;77.40;;;;;;5071577;28;44217;-68
2023/09/17 08:46:26;;;;;;;5.43;4.93;;;23.00;77.50;;;;;;5093820;28;43606;-68
2023/09/17 08:48:55;;;;;;;5.73;5.23;;;22.90;77.50;;;;;;5090290;28;43615;-68
2023/09/17 08:51:24;;;;;;;5.40;4.90;;;22.90;77.70;;;;;;5063818;28;44351;-68
2023/09/17 08:53:57;;;;;;;5.23;4.80;;;22.90;78.00;;;;;;5084443;28;44597;-68
2023/09/17 08:56:25;;;;;;;5.40;4.90;;;22.90;77.90;;;;;;5100638;28;43385;-68
2023/09/17 08:58:57;;;;;;;4.90;4.53;;;22.80;77.80;;;;;;5098643;27;43713;-68
2023/09/17 09:01:25;;;;;;;5.03;4.63;;;22.80;78.00;;;;;;5088852;28;44712;-68
2023/09/17 09:03:54;;;;;;;5.60;5.20;;;22.80;78.00;;;;;;5096046;28;43443;-68
2023/09/17 09:06:22;;;;;;;5.07;4.67;;;22.80;77.80;;;;;;5099776;28;43419;-68
2023/09/17 09:08:52;;;;;;;5.30;4.87;;;22.90;77.50;;;;;;5094202;28;43572;-68
2023/09/17 09:11:20;;;;;;;5.77;4.70;;;23.00;77.20;;;;;;5090146;28;43366;-68
2023/09/17 09:13:50;;;;;;;4.80;4.43;;;23.00;77.10;;;;;;5097160;28;43430;-68
2023/09/17 09:16:20;;;;;;;5.20;4.70;;;23.00;77.20;;;;;;5092391;28;43941;-68
2023/09/17 09:18:49;;;;;;;4.80;4.40;;;23.00;77.30;;;;;;5073298;28;43940;-71
2023/09/17 09:21:17;;;;;;;4.50;4.10;;;23.00;77.20;;;;;;5068904;28;43945;-72
2023/09/17 09:23:45;;;;;;;4.57;4.27;;;23.00;77.30;;;;;;5068881;28;43878;-71
2023/09/17 09:26:13;;;;;;;5.30;4.87;;;22.90;77.40;;;;;;5063397;28;43419;-71
2023/09/17 09:28:40;;;;;;;4.87;4.47;;;22.90;77.60;;;;;;5079445;28;43603;-72
2023/09/17 09:31:09;;;;;;;5.60;4.80;;;22.90;77.70;;;;;;5072792;28;43534;-71
2023/09/17 09:33:38;;;;;;;4.40;4.10;;;22.90;77.60;;;;;;5069562;28;43476;-72
2023/09/17 09:36:06;;;;;;;4.37;4.07;;;22.90;77.80;;;;;;5057187;28;43403;-71
2023/09/17 09:38:34;;;;;;;4.60;4.30;;;22.80;77.90;;;;;;5064109;28;43605;-72
2023/09/17 09:41:02;;;;;;;4.33;4.03;;;22.80;77.90;;;;;;5066266;28;44824;-72
2023/09/17 09:43:31;;;;;;;4.00;3.80;;;22.90;77.70;;;;;;5058809;28;43395;-72
2023/09/17 09:46:04;;;;;;;4.53;4.23;;;22.90;77.20;;;;;;5076789;28;43369;-72
2023/09/17 09:48:32;;;;;;;4.53;4.13;;;23.10;76.90;;;;;;5073413;28;43632;-70
2023/09/17 09:51:01;;;;;;;4.50;4.10;;;23.20;76.50;;;;;;5068101;28;43934;-71
2023/09/17 09:53:30;;;;;;;4.10;3.90;;;23.20;76.10;;;;;;5075596;28;43385;-72
2023/09/17 09:55:58;;;;;;;4.37;3.97;;;23.20;76.30;;;;;;5075051;28;43851;-73
2023/09/17 09:58:26;;;;;;;4.10;3.90;;;23.20;76.70;;;;;;5069506;28;43898;-71
2023/09/17 10:00:54;;;;;;;4.87;4.47;;;23.10;76.90;;;;;;5068303;27;43364;-70
2023/09/17 10:03:23;;;;;;;4.10;3.90;;;23.10;77.00;;;;;;5074052;28;43530;-70
2023/09/17 10:05:51;;;;;;;4.23;4.03;;;23.00;77.10;;;;;;5049837;28;43429;-71
2023/09/17 10:08:20;;;;;;;3.87;3.63;;;23.00;77.40;;;;;;5072971;28;44308;-71
2023/09/17 10:10:48;;;;;;;4.20;4.00;;;23.00;77.60;;;;;;5050865;28;44681;-72
2023/09/17 10:13:17;;;;;;;4.43;4.00;;;22.90;77.70;;;;;;5067360;28;43538;-71
2023/09/17 10:15:46;;;;;;;4.40;4.20;;;22.90;77.60;;;;;;5062891;28;43420;-70
2023/09/17 10:18:14;;;;;;;4.07;3.87;;;22.90;77.70;;;;;;5069567;28;43608;-70
2023/09/17 10:20:43;;;;;;;4.30;4.10;;;22.90;77.80;;;;;;5065485;28;43515;-73
2023/09/17 10:23:11;;;;;;;4.30;4.00;;;22.90;78.00;;;;;;5066747;28;43436;-72
2023/09/17 10:25:41;;;;;;;3.80;3.50;;;22.90;77.70;;;;;;5072500;28;43514;-72
2023/09/17 10:28:09;;;;;;;4.40;4.20;;;23.00;77.30;;;;;;5068736;28;44047;-71
2023/09/17 10:30:38;;;;;;;3.83;3.63;;;23.10;76.80;;;;;;5067589;28;43418;-70
2023/09/17 10:33:07;;;;;;;4.33;4.13;;;23.20;76.40;;;;;;5075609;28;43422;-70
2023/09/17 10:35:35;;;;;;;4.13;3.93;;;23.30;76.20;;;;;;5069825;28;43427;-70
2023/09/17 10:38:04;;;;;;;3.90;3.70;;;23.20;76.30;;;;;;5045040;28;44581;-70
2023/09/17 10:40:32;;;;;;;4.00;3.70;;;23.20;76.70;;;;;;5065977;28;43337;-69
2023/09/17 10:43:02;;;;;;;4.03;3.77;;;23.10;76.90;;;;;;5076259;28;43389;-69
2023/09/17 10:45:32;;;;;;;4.17;3.97;;;23.10;77.00;;;;;;5070449;28;43416;-69
2023/09/17 10:48:01;;;;;;;4.13;3.93;;;23.10;77.20;;;;;;5063927;28;45767;-69
2023/09/17 10:50:29;;;;;;;4.50;4.20;;;23.00;77.30;;;;;;5067385;28;43413;-69
2023/09/17 10:52:57;;;;;;;4.50;4.20;;;23.00;77.50;;;;;;5061199;28;43396;-70
2023/09/17 10:55:25;;;;;;;4.10;3.90;;;23.00;77.40;;;;;;5067352;28;43443;-70
2023/09/17 10:57:57;;;;;;;4.27;3.97;;;23.00;77.50;;;;;;5067965;28;43598;-74
2023/09/17 11:00:26;;;;;;;3.97;3.77;;;22.90;77.60;;;;;;5066842;28;43443;-72
2023/09/17 11:02:55;;;;;;;3.93;3.73;;;22.90;77.80;;;;;;5063731;28;43553;-70
2023/09/17 11:05:25;;;;;;;3.83;3.53;;;22.90;77.80;;;;;;5043626;28;43378;-69
2023/09/17 11:07:53;;;;;;;3.80;3.60;;;22.90;77.70;;;;;;5064465;28;43616;-70
2023/09/17 11:10:21;;;;;;;4.03;3.73;;;22.90;77.90;;;;;;5064584;28;43930;-70
2023/09/17 11:12:59;;;;;;;3.70;3.50;;;22.90;77.90;;;;;;5062137;28;43903;-70
2023/09/17 11:15:29;;;;;;;3.90;3.70;;;22.90;78.10;;;;;;5060880;28;43421;-70
2023/09/17 11:17:59;;;;;;;3.90;3.70;;;22.90;77.80;;;;;;5065584;28;43894;-70
2023/09/17 11:20:27;;;;;;;3.63;3.50;;;23.00;77.50;;;;;;5072901;28;43390;-70
2023/09/17 11:22:56;;;;;;;3.77;3.57;;;23.10;76.90;;;;;;5062321;28;43940;-70
2023/09/17 11:25:34;;;;;;;4.00;3.80;;;23.20;76.40;;;;;;5066436;28;43369;-70
2023/09/17 11:28:09;;;;;;;3.60;3.50;;;23.30;75.90;;;;;;5049461;28;46070;-70
2023/09/17 11:30:56;;;;;;;3.60;3.40;;;23.30;75.80;;;;;;5062719;28;43937;-70
2023/09/17 11:33:25;;;;;;;3.93;3.73;;;23.30;76.20;;;;;;5062403;28;43404;-71
2023/09/17 11:35:53;;;;;;;3.37;3.27;;;23.20;76.40;;;;;;5065545;28;43492;-69
2023/09/17 11:38:24;;;;;;;3.37;3.27;;;23.20;76.50;;;;;;5068743;28;43888;-70
2023/09/17 11:41:03;;;;;;;3.47;3.27;;;23.20;76.70;;;;;;5058351;28;43418;-70
2023/09/17 11:43:32;;;;;;;3.23;3.13;;;23.10;77.00;;;;;;5065388;28;43439;-69
2023/09/17 11:46:08;;;;;;;3.70;3.50;;;23.10;77.30;;;;;;5048018;28;43532;-69
2023/09/17 11:48:36;;;;;;;3.60;3.40;;;23.00;77.20;;;;;;5058606;28;43682;-69
2023/09/17 11:51:21;;;;;;;3.90;3.30;;;23.00;77.40;;;;;;5065878;28;43373;-69
2023/09/17 11:53:50;;;;;;;3.27;3.17;;;23.00;77.60;;;;;;5067114;28;43404;-70
2023/09/17 11:56:19;;;;;;;3.10;3.00;;;23.00;77.90;;;;;;5062844;28;43509;-71
2023/09/17 11:58:56;;;;;;;3.80;3.60;;;22.90;77.60;;;;;;5065265;28;43613;-69
2023/09/17 12:01:26;;;;;;;3.57;3.37;;;22.90;77.50;;;;;;5063698;28;43923;-70
2023/09/17 12:03:54;;;;;;;3.83;3.63;;;22.90;77.90;;;;;;5043966;28;43388;-69
2023/09/17 12:06:22;;;;;;;3.60;3.40;;;22.90;78.00;;;;;;5045847;28;43437;-69
2023/09/17 12:08:50;;;;;;;3.83;3.53;;;22.90;78.10;;;;;;5053865;28;43600;-69
2023/09/17 12:11:22;;;;;;;2.97;2.87;;;22.90;78.00;;;;;;5060879;28;43437;-71
2023/09/17 12:13:53;;;;;;;3.07;2.90;;;22.90;77.70;;;;;;5060561;28;43377;-70
2023/09/17 12:16:24;;;;;;;3.80;3.60;;;23.00;77.30;;;;;;5065793;28;43406;-69
2023/09/17 12:18:54;;;;;;;3.67;3.33;;;23.20;76.80;;;;;;5061995;28;43620;-75
2023/09/17 12:21:44;;;;;;;3.43;3.30;;;23.20;76.30;;;;;;5066533;28;43474;-69
2023/09/17 12:24:19;;;;;;;3.40;3.30;;;23.20;76.40;;;;;;5068591;28;43403;-70
2023/09/17 12:26:56;;;;;;;3.57;3.37;;;23.20;76.80;;;;;;5066234;28;43340;-69
2023/09/17 12:29:24;;;;;;;2.90;2.80;;;23.10;77.00;;;;;;5063524;28;43873;-70
2023/09/17 12:31:52;;;;;;;3.50;3.20;;;23.10;77.00;;;;;;5076170;28;43435;-70
2023/09/17 12:34:22;;;;;;;3.37;3.27;;;23.10;77.30;;;;;;5068231;28;43461;-77
2023/09/17 12:36:50;;;;;;;3.23;3.03;;;23.10;77.60;;;;;;5066882;28;43605;-69
2023/09/17 12:39:18;;;;;;;3.50;3.23;;;23.00;77.50;;;;;;5070143;28;43579;-70
2023/09/17 12:41:46;;;;;;;3.10;3.00;;;23.00;77.20;;;;;;5057437;28;43360;-69
2023/09/17 12:44:14;;;;;;;3.13;3.03;;;23.00;77.10;;;;;;5067784;28;44171;-69
2023/09/17 12:46:42;;;;;;;2.90;2.80;;;23.10;76.70;;;;;;5064910;28;43957;-69
2023/09/17 12:49:11;;;;;;;3.50;3.17;;;23.20;76.60;;;;;;5086960;28;43845;-68
2023/09/17 12:51:40;;;;;;;3.10;3.00;;;23.20;77.00;;;;;;5098647;28;43457;-68
2023/09/17 12:54:08;;;;;;;3.00;2.90;;;23.10;77.70;;;;;;5091942;28;43370;-69
2023/09/17 12:56:36;;;;;;;3.10;2.90;;;23.10;76.70;;;;;;5095395;27;43388;-68